Station Historical Data
Daily Summary for March 8, 2012 Units:  Both    English   Metric
« Previous Day
Next Day »
Daily Weekly Monthly Yearly Custom
  High: Low: Average:
Temperature: 70.0 °F /  21.1 °C 42.8 °F /  6 °C 59.3 °F /  15.2 °C
Dew Point: 60.7 °F /  15.9 °C 41.5 °F /  5.3 °C 52.8 °F /  11.6 °C
Humidity: 96% 65% 80%
Wind Speed: 22.0mph /  35.4km/h - 8.8mph /  14.2km/h
Wind Gust: 27.0mph /  43.5km/h - -
Wind- - SSE
Pressure: 30.23 in /  1023.6 hPa 30.01 in /  1016.1 hPa -
Precipitation: 1.38 in /  35.05 mm    
Historical Graphs
 
 
Tabular Data for March 8, 2012
Time Temperature Dew Point Pressure Wind Wind Speed Wind Gust Humidity Rainfall Rate (Hourly) Conditions
00:00 62.2 °F /  16.8 °C 51.1 °F /  10.6 °C 30.21in /  1022.9hPa SSE 10.0mph /  16.1km/h 11.0mph /  17.7km/h 67% 0.00in /  0mm
00:01 62.2 °F /  16.8 °C 51.1 °F /  10.6 °C 30.21in /  1022.9hPa SE 7.0mph /  11.3km/h 10.0mph /  16.1km/h 67% 0.00in /  0mm
00:06 62.2 °F /  16.8 °C 51.1 °F /  10.6 °C 30.21in /  1022.9hPa SSE 6.0mph /  9.7km/h 10.0mph /  16.1km/h 67% 0.00in /  0mm
00:11 62.1 °F /  16.7 °C 51.0 °F /  10.6 °C 30.21in /  1022.9hPa SE 9.0mph /  14.5km/h 9.0mph /  14.5km/h 67% 0.00in /  0mm
00:16 62.1 °F /  16.7 °C 51.0 °F /  10.6 °C 30.21in /  1022.9hPa SE 9.0mph /  14.5km/h 12.0mph /  19.3km/h 67% 0.00in /  0mm
00:21 62.0 °F /  16.7 °C 50.9 °F /  10.5 °C 30.21in /  1022.9hPa SSE 9.0mph /  14.5km/h 12.0mph /  19.3km/h 67% 0.00in /  0mm
00:27 62.0 °F /  16.7 °C 50.9 °F /  10.5 °C 30.21in /  1022.9hPa SSE 8.0mph /  12.9km/h 14.0mph /  22.5km/h 67% 0.00in /  0mm
00:32 62.0 °F /  16.7 °C 50.9 °F /  10.5 °C 30.21in /  1022.9hPa SE 10.0mph /  16.1km/h 12.0mph /  19.3km/h 67% 0.00in /  0mm
00:37 62.0 °F /  16.7 °C 50.9 °F /  10.5 °C 30.21in /  1022.9hPa SE 7.0mph /  11.3km/h 10.0mph /  16.1km/h 67% 0.00in /  0mm
00:42 61.8 °F /  16.6 °C 51.1 °F /  10.6 °C 30.21in /  1022.9hPa SSE 8.0mph /  12.9km/h 11.0mph /  17.7km/h 68% 0.00in /  0mm
00:47 61.8 °F /  16.6 °C 51.1 °F /  10.6 °C 30.21in /  1022.9hPa SE 6.0mph /  9.7km/h 8.0mph /  12.9km/h 68% 0.00in /  0mm
00:52 61.7 °F /  16.5 °C 51.0 °F /  10.6 °C 30.21in /  1022.9hPa SSE 6.0mph /  9.7km/h 12.0mph /  19.3km/h 68% 0.00in /  0mm
00:57 61.7 °F /  16.5 °C 51.0 °F /  10.6 °C 30.21in /  1022.9hPa SE 10.0mph /  16.1km/h 13.0mph /  20.9km/h 68% 0.00in /  0mm
01:02 61.6 °F /  16.4 °C 51.0 °F /  10.6 °C 30.21in /  1022.9hPa SSE 7.0mph /  11.3km/h 8.0mph /  12.9km/h 68% 0.00in /  0mm
01:07 61.5 °F /  16.4 °C 50.8 °F /  10.4 °C 30.21in /  1022.9hPa SE 7.0mph /  11.3km/h 10.0mph /  16.1km/h 68% 0.00in /  0mm
01:12 61.3 °F /  16.3 °C 51.1 °F /  10.6 °C 30.21in /  1022.9hPa SSE 8.0mph /  12.9km/h 11.0mph /  17.7km/h 69% 0.00in /  0mm
01:17 61.3 °F /  16.3 °C 51.1 °F /  10.6 °C 30.21in /  1022.9hPa SE 12.0mph /  19.3km/h 12.0mph /  19.3km/h 69% 0.00in /  0mm
01:22 61.2 °F /  16.2 °C 51.0 °F /  10.6 °C 30.22in /  1023.2hPa SSE 8.0mph /  12.9km/h 12.0mph /  19.3km/h 69% 0.00in /  0mm
01:27 61.1 °F /  16.2 °C 50.9 °F /  10.5 °C 30.22in /  1023.2hPa SSE 10.0mph /  16.1km/h 11.0mph /  17.7km/h 69% 0.00in /  0mm
01:32 61.0 °F /  16.1 °C 50.8 °F /  10.4 °C 30.22in /  1023.2hPa SSE 8.0mph /  12.9km/h 8.0mph /  12.9km/h 69% 0.00in /  0mm
01:37 61.0 °F /  16.1 °C 50.8 °F /  10.4 °C 30.22in /  1023.2hPa SE 4.0mph /  6.4km/h 12.0mph /  19.3km/h 69% 0.00in /  0mm
01:43 60.9 °F /  16.1 °C 50.7 °F /  10.4 °C 30.22in /  1023.2hPa SE 11.0mph /  17.7km/h 11.0mph /  17.7km/h 69% 0.00in /  0mm
01:48 60.9 °F /  16.1 °C 50.7 °F /  10.4 °C 30.22in /  1023.2hPa SE 8.0mph /  12.9km/h 10.0mph /  16.1km/h 69% 0.00in /  0mm
01:53 60.9 °F /  16.1 °C 50.7 °F /  10.4 °C 30.22in /  1023.2hPa SE 9.0mph /  14.5km/h 11.0mph /  17.7km/h 69% 0.00in /  0mm
01:58 60.9 °F /  16.1 °C 50.7 °F /  10.4 °C 30.22in /  1023.2hPa SSE 9.0mph /  14.5km/h 11.0mph /  17.7km/h 69% 0.00in /  0mm
02:03 60.8 °F /  16 °C 50.6 °F /  10.3 °C 30.22in /  1023.2hPa SE 7.0mph /  11.3km/h 9.0mph /  14.5km/h 69% 0.00in /  0mm
02:08 60.6 °F /  15.9 °C 50.8 °F /  10.4 °C 30.22in /  1023.2hPa SE 7.0mph /  11.3km/h 9.0mph /  14.5km/h 70% 0.00in /  0mm
02:13 60.5 °F /  15.8 °C 50.7 °F /  10.4 °C 30.22in /  1023.2hPa SSE 8.0mph /  12.9km/h 10.0mph /  16.1km/h 70% 0.00in /  0mm
02:18 60.5 °F /  15.8 °C 50.7 °F /  10.4 °C 30.22in /  1023.2hPa ESE 5.0mph /  8km/h 11.0mph /  17.7km/h 70% 0.00in /  0mm
02:23 60.3 °F /  15.7 °C 50.5 °F /  10.3 °C 30.21in /  1022.9hPa SE 7.0mph /  11.3km/h 7.0mph /  11.3km/h 70% 0.00in /  0mm
02:28 60.2 °F /  15.7 °C 50.8 °F /  10.4 °C 30.21in /  1022.9hPa SE 4.0mph /  6.4km/h 9.0mph /  14.5km/h 71% 0.00in /  0mm
02:33 60.1 °F /  15.6 °C 50.7 °F /  10.4 °C 30.21in /  1022.9hPa SE 6.0mph /  9.7km/h 6.0mph /  9.7km/h 71% 0.00in /  0mm
02:38 60.0 °F /  15.6 °C 50.6 °F /  10.3 °C 30.21in /  1022.9hPa SE 6.0mph /  9.7km/h 11.0mph /  17.7km/h 71% 0.00in /  0mm
02:43 60.0 °F /  15.6 °C 50.6 °F /  10.3 °C 30.21in /  1022.9hPa SE 7.0mph /  11.3km/h 10.0mph /  16.1km/h 71% 0.00in /  0mm
02:48 59.9 °F /  15.5 °C 50.5 °F /  10.3 °C 30.20in /  1022.6hPa SE 6.0mph /  9.7km/h 9.0mph /  14.5km/h 71% 0.00in /  0mm
02:53 59.8 °F /  15.4 °C 50.8 °F /  10.4 °C 30.20in /  1022.6hPa SE 5.0mph /  8km/h 9.0mph /  14.5km/h 72% 0.00in /  0mm
02:58 59.7 °F /  15.4 °C 50.7 °F /  10.4 °C 30.20in /  1022.6hPa SE 5.0mph /  8km/h 9.0mph /  14.5km/h 72% 0.00in /  0mm
03:03 59.7 °F /  15.4 °C 50.7 °F /  10.4 °C 30.20in /  1022.6hPa SE 6.0mph /  9.7km/h 9.0mph /  14.5km/h 72% 0.00in /  0mm
03:08 59.6 °F /  15.3 °C 50.6 °F /  10.3 °C 30.20in /  1022.6hPa SSE 6.0mph /  9.7km/h 9.0mph /  14.5km/h 72% 0.00in /  0mm
03:13 59.5 °F /  15.3 °C 50.5 °F /  10.3 °C 30.20in /  1022.6hPa SSE 5.0mph /  8km/h 10.0mph /  16.1km/h 72% 0.00in /  0mm
03:18 59.5 °F /  15.3 °C 50.5 °F /  10.3 °C 30.19in /  1022.2hPa SE 6.0mph /  9.7km/h 10.0mph /  16.1km/h 72% 0.00in /  0mm
03:23 59.4 °F /  15.2 °C 50.4 °F /  10.2 °C 30.19in /  1022.2hPa ESE 6.0mph /  9.7km/h 9.0mph /  14.5km/h 72% 0.00in /  0mm
03:28 59.3 °F /  15.2 °C 50.3 °F /  10.2 °C 30.19in /  1022.2hPa SE 6.0mph /  9.7km/h 9.0mph /  14.5km/h 72% 0.00in /  0mm
03:33 59.1 °F /  15.1 °C 50.5 °F /  10.3 °C 30.19in /  1022.2hPa SSE 6.0mph /  9.7km/h 7.0mph /  11.3km/h 73% 0.00in /  0mm
03:38 58.9 °F /  14.9 °C 50.3 °F /  10.2 °C 30.19in /  1022.2hPa SSE 5.0mph /  8km/h 8.0mph /  12.9km/h 73% 0.00in /  0mm
03:43 58.8 °F /  14.9 °C 50.2 °F /  10.1 °C 30.19in /  1022.2hPa SSE 7.0mph /  11.3km/h 8.0mph /  12.9km/h 73% 0.00in /  0mm
03:48 58.6 °F /  14.8 °C 50.3 °F /  10.2 °C 30.18in /  1021.9hPa ESE 6.0mph /  9.7km/h 9.0mph /  14.5km/h 74% 0.00in /  0mm
03:53 58.6 °F /  14.8 °C 50.3 °F /  10.2 °C 30.19in /  1022.2hPa SE 7.0mph /  11.3km/h 8.0mph /  12.9km/h 74% 0.00in /  0mm
03:58 58.6 °F /  14.8 °C 50.3 °F /  10.2 °C 30.18in /  1021.9hPa SE 8.0mph /  12.9km/h 9.0mph /  14.5km/h 74% 0.00in /  0mm
04:03 58.6 °F /  14.8 °C 50.3 °F /  10.2 °C 30.18in /  1021.9hPa SE 7.0mph /  11.3km/h 10.0mph /  16.1km/h 74% 0.00in /  0mm
04:08 58.5 °F /  14.7 °C 50.2 °F /  10.1 °C 30.18in /  1021.9hPa SE 5.0mph /  8km/h 10.0mph /  16.1km/h 74% 0.00in /  0mm
04:13 58.4 °F /  14.7 °C 50.2 °F /  10.1 °C 30.18in /  1021.9hPa SE 7.0mph /  11.3km/h 12.0mph /  19.3km/h 74% 0.00in /  0mm
04:18 58.3 °F /  14.6 °C 50.4 °F /  10.2 °C 30.18in /  1021.9hPa SE 8.0mph /  12.9km/h 11.0mph /  17.7km/h 75% 0.00in /  0mm
04:23 58.3 °F /  14.6 °C 50.4 °F /  10.2 °C 30.18in /  1021.9hPa SE 6.0mph /  9.7km/h 12.0mph /  19.3km/h 75% 0.00in /  0mm
04:28 58.2 °F /  14.6 °C 50.3 °F /  10.2 °C 30.18in /  1021.9hPa SE 8.0mph /  12.9km/h 12.0mph /  19.3km/h 75% 0.00in /  0mm
04:33 58.2 °F /  14.6 °C 50.3 °F /  10.2 °C 30.18in /  1021.9hPa SE 6.0mph /  9.7km/h 11.0mph /  17.7km/h 75% 0.00in /  0mm
04:38 58.2 °F /  14.6 °C 50.3 °F /  10.2 °C 30.18in /  1021.9hPa SE 6.0mph /  9.7km/h 8.0mph /  12.9km/h 75% 0.00in /  0mm
04:43 58.1 °F /  14.5 °C 50.2 °F /  10.1 °C 30.17in /  1021.6hPa SE 6.0mph /  9.7km/h 9.0mph /  14.5km/h 75% 0.00in /  0mm
04:48 57.8 °F /  14.3 °C 50.3 °F /  10.2 °C 30.16in /  1021.2hPa SE 10.0mph /  16.1km/h 10.0mph /  16.1km/h 76% 0.00in /  0mm
04:53 57.9 °F /  14.4 °C 50.0 °F /  10 °C 30.16in /  1021.2hPa SE 8.0mph /  12.9km/h 15.0mph /  24.1km/h 75% 0.00in /  0mm
04:58 57.8 °F /  14.3 °C 49.9 °F /  9.9 °C 30.16in /  1021.2hPa SE 11.0mph /  17.7km/h 15.0mph /  24.1km/h 75% 0.00in /  0mm
05:03 57.8 °F /  14.3 °C 50.3 °F /  10.2 °C 30.16in /  1021.2hPa SE 11.0mph /  17.7km/h 15.0mph /  24.1km/h 76% 0.00in /  0mm
05:08 57.5 °F /  14.2 °C 50.0 °F /  10 °C 30.15in /  1020.9hPa SE 9.0mph /  14.5km/h 13.0mph /  20.9km/h 76% 0.00in /  0mm
05:13 57.4 °F /  14.1 °C 49.9 °F /  9.9 °C 30.15in /  1020.9hPa SE 7.0mph /  11.3km/h 12.0mph /  19.3km/h 76% 0.00in /  0mm
05:18 57.4 °F /  14.1 °C 50.3 °F /  10.2 °C 30.15in /  1020.9hPa SE 11.0mph /  17.7km/h 16.0mph /  25.7km/h 77% 0.00in /  0mm
05:23 57.3 °F /  14.1 °C 50.2 °F /  10.1 °C 30.15in /  1020.9hPa SE 10.0mph /  16.1km/h 14.0mph /  22.5km/h 77% 0.00in /  0mm
05:29 57.3 °F /  14.1 °C 50.2 °F /  10.1 °C 30.15in /  1020.9hPa ESE 9.0mph /  14.5km/h 17.0mph /  27.4km/h 77% 0.00in /  0mm
05:34 57.2 °F /  14 °C 50.1 °F /  10.1 °C 30.15in /  1020.9hPa SE 13.0mph /  20.9km/h 15.0mph /  24.1km/h 77% 0.00in /  0mm
05:39 57.2 °F /  14 °C 50.1 °F /  10.1 °C 30.15in /  1020.9hPa ESE 9.0mph /  14.5km/h 16.0mph /  25.7km/h 77% 0.00in /  0mm
05:44 57.2 °F /  14 °C 50.1 °F /  10.1 °C 30.14in /  1020.5hPa SE 10.0mph /  16.1km/h 14.0mph /  22.5km/h 77% 0.00in /  0mm
05:49 57.2 °F /  14 °C 50.1 °F /  10.1 °C 30.14in /  1020.5hPa SE 12.0mph /  19.3km/h 14.0mph /  22.5km/h 77% 0.00in /  0mm
05:54 57.1 °F /  13.9 °C 50.0 °F /  10 °C 30.14in /  1020.5hPa SE 10.0mph /  16.1km/h 16.0mph /  25.7km/h 77% 0.00in /  0mm
05:59 57.1 °F /  13.9 °C 50.3 °F /  10.2 °C 30.14in /  1020.5hPa SE 6.0mph /  9.7km/h 14.0mph /  22.5km/h 78% 0.00in /  0mm
06:04 57.1 °F /  13.9 °C 50.3 °F /  10.2 °C 30.15in /  1020.9hPa SSE 11.0mph /  17.7km/h 13.0mph /  20.9km/h 78% 0.00in /  0mm
06:09 57.1 °F /  13.9 °C 50.3 °F /  10.2 °C 30.16in /  1021.2hPa SE 12.0mph /  19.3km/h 12.0mph /  19.3km/h 78% 0.00in /  0mm
06:14 57.3 °F /  14.1 °C 50.5 °F /  10.3 °C 30.16in /  1021.2hPa SE 9.0mph /  14.5km/h 14.0mph /  22.5km/h 78% 0.00in /  0mm
06:19 57.4 °F /  14.1 °C 50.3 °F /  10.2 °C 30.15in /  1020.9hPa SE 10.0mph /  16.1km/h 14.0mph /  22.5km/h 77% 0.00in /  0mm
06:24 57.4 °F /  14.1 °C 50.3 °F /  10.2 °C 30.14in /  1020.5hPa SE 12.0mph /  19.3km/h 14.0mph /  22.5km/h 77% 0.00in /  0mm
06:29 57.5 °F /  14.2 °C 50.4 °F /  10.2 °C 30.14in /  1020.5hPa SE 12.0mph /  19.3km/h 16.0mph /  25.7km/h 77% 0.00in /  0mm
06:34 57.6 °F /  14.2 °C 50.5 °F /  10.3 °C 30.14in /  1020.5hPa SE 9.0mph /  14.5km/h 15.0mph /  24.1km/h 77% 0.00in /  0mm
06:39 57.6 °F /  14.2 °C 50.5 °F /  10.3 °C 30.14in /  1020.5hPa SE 10.0mph /  16.1km/h 12.0mph /  19.3km/h 77% 0.00in /  0mm
06:44 57.7 °F /  14.3 °C 50.5 °F /  10.3 °C 30.15in /  1020.9hPa SE 8.0mph /  12.9km/h 14.0mph /  22.5km/h 77% 0.00in /  0mm
06:49 57.7 °F /  14.3 °C 50.9 °F /  10.5 °C 30.15in /  1020.9hPa SE 8.0mph /  12.9km/h 11.0mph /  17.7km/h 78% 0.00in /  0mm
06:54 57.9 °F /  14.4 °C 50.7 °F /  10.4 °C 30.15in /  1020.9hPa SSE 11.0mph /  17.7km/h 16.0mph /  25.7km/h 77% 0.00in /  0mm
06:59 57.8 °F /  14.3 °C 51.0 °F /  10.6 °C 30.16in /  1021.2hPa SE 7.0mph /  11.3km/h 9.0mph /  14.5km/h 78% 0.00in /  0mm
07:04 57.6 °F /  14.2 °C 50.8 °F /  10.4 °C 30.16in /  1021.2hPa SSE 9.0mph /  14.5km/h 9.0mph /  14.5km/h 78% 0.00in /  0mm
07:09 57.8 °F /  14.3 °C 51.0 °F /  10.6 °C 30.16in /  1021.2hPa SSE 6.0mph /  9.7km/h 14.0mph /  22.5km/h 78% 0.00in /  0mm
07:14 57.9 °F /  14.4 °C 51.1 °F /  10.6 °C 30.16in /  1021.2hPa SSE 9.0mph /  14.5km/h 11.0mph /  17.7km/h 78% 0.00in /  0mm
07:19 57.9 °F /  14.4 °C 51.1 °F /  10.6 °C 30.16in /  1021.2hPa South 8.0mph /  12.9km/h 11.0mph /  17.7km/h 78% 0.00in /  0mm
07:24 58.0 °F /  14.4 °C 51.2 °F /  10.7 °C 30.15in /  1020.9hPa SE 10.0mph /  16.1km/h 13.0mph /  20.9km/h 78% 0.00in /  0mm
07:29 58.2 °F /  14.6 °C 51.4 °F /  10.8 °C 30.14in /  1020.5hPa SE 7.0mph /  11.3km/h 13.0mph /  20.9km/h 78% 0.00in /  0mm
07:34 58.3 °F /  14.6 °C 51.5 °F /  10.8 °C 30.14in /  1020.5hPa SSE 11.0mph /  17.7km/h 15.0mph /  24.1km/h 78% 0.00in /  0mm
07:39 58.3 °F /  14.6 °C 51.5 °F /  10.8 °C 30.15in /  1020.9hPa SSE 14.0mph /  22.5km/h 14.0mph /  22.5km/h 78% 0.00in /  0mm
07:44 58.5 °F /  14.7 °C 51.7 °F /  10.9 °C 30.15in /  1020.9hPa SE 11.0mph /  17.7km/h 17.0mph /  27.4km/h 78% 0.00in /  0mm
07:49 58.5 °F /  14.7 °C 51.7 °F /  10.9 °C 30.15in /  1020.9hPa SSE 7.0mph /  11.3km/h 11.0mph /  17.7km/h 78% 0.00in /  0mm
07:54 58.5 °F /  14.7 °C 51.7 °F /  10.9 °C 30.15in /  1020.9hPa ESE 8.0mph /  12.9km/h 12.0mph /  19.3km/h 78% 0.00in /  0mm
07:59 58.6 °F /  14.8 °C 51.8 °F /  11 °C 30.15in /  1020.9hPa SSE 12.0mph /  19.3km/h 15.0mph /  24.1km/h 78% 0.00in /  0mm
08:04 58.6 °F /  14.8 °C 51.8 °F /  11 °C 30.13in /  1020.2hPa South 7.0mph /  11.3km/h 14.0mph /  22.5km/h 78% 0.00in /  0mm
08:09 58.8 °F /  14.9 °C 52.0 °F /  11.1 °C 30.14in /  1020.5hPa ESE 11.0mph /  17.7km/h 16.0mph /  25.7km/h 78% 0.00in /  0mm
08:14 58.8 °F /  14.9 °C 52.0 °F /  11.1 °C 30.15in /  1020.9hPa SSE 11.0mph /  17.7km/h 16.0mph /  25.7km/h 78% 0.00in /  0mm
08:19 58.8 °F /  14.9 °C 52.0 °F /  11.1 °C 30.15in /  1020.9hPa SE 8.0mph /  12.9km/h 14.0mph /  22.5km/h 78% 0.00in /  0mm
08:24 58.8 °F /  14.9 °C 52.0 °F /  11.1 °C 30.14in /  1020.5hPa SSE 12.0mph /  19.3km/h 15.0mph /  24.1km/h 78% 0.00in /  0mm
08:29 58.8 °F /  14.9 °C 52.0 °F /  11.1 °C 30.14in /  1020.5hPa SE 15.0mph /  24.1km/h 16.0mph /  25.7km/h 78% 0.00in /  0mm
08:34 59.0 °F /  15 °C 52.2 °F /  11.2 °C 30.15in /  1020.9hPa SSE 14.0mph /  22.5km/h 15.0mph /  24.1km/h 78% 0.00in /  0mm
08:39 59.1 °F /  15.1 °C 52.3 °F /  11.3 °C 30.15in /  1020.9hPa SE 12.0mph /  19.3km/h 17.0mph /  27.4km/h 78% 0.00in /  0mm
08:44 59.2 °F /  15.1 °C 52.3 °F /  11.3 °C 30.14in /  1020.5hPa SE 10.0mph /  16.1km/h 16.0mph /  25.7km/h 78% 0.00in /  0mm
08:50 59.2 °F /  15.1 °C 52.3 °F /  11.3 °C 30.14in /  1020.5hPa SSE 14.0mph /  22.5km/h 19.0mph /  30.6km/h 78% 0.00in /  0mm
08:55 59.2 °F /  15.1 °C 52.3 °F /  11.3 °C 30.14in /  1020.5hPa SSE 12.0mph /  19.3km/h 16.0mph /  25.7km/h 78% 0.00in /  0mm
09:00 59.2 °F /  15.1 °C 52.3 °F /  11.3 °C 30.14in /  1020.5hPa SSE 12.0mph /  19.3km/h 16.0mph /  25.7km/h 78% 0.00in /  0mm
09:05 59.4 °F /  15.2 °C 52.5 °F /  11.4 °C 30.14in /  1020.5hPa SE 11.0mph /  17.7km/h 13.0mph /  20.9km/h 78% 0.00in /  0mm
09:10 59.6 °F /  15.3 °C 52.7 °F /  11.5 °C 30.14in /  1020.5hPa SE 20.0mph /  32.2km/h 20.0mph /  32.2km/h 78% 0.00in /  0mm
09:15 59.7 °F /  15.4 °C 52.8 °F /  11.6 °C 30.13in /  1020.2hPa SSE 13.0mph /  20.9km/h 15.0mph /  24.1km/h 78% 0.00in /  0mm
09:20 59.8 °F /  15.4 °C 52.9 °F /  11.6 °C 30.12in /  1019.9hPa SSE 11.0mph /  17.7km/h 23.0mph /  37km/h 78% 0.00in /  0mm
09:25 59.9 °F /  15.5 °C 53.0 °F /  11.7 °C 30.13in /  1020.2hPa SE 16.0mph /  25.7km/h 16.0mph /  25.7km/h 78% 0.00in /  0mm
09:30 60.0 °F /  15.6 °C 53.1 °F /  11.7 °C 30.14in /  1020.5hPa SE 10.0mph /  16.1km/h 17.0mph /  27.4km/h 78% 0.00in /  0mm
09:35 60.3 °F /  15.7 °C 53.4 °F /  11.9 °C 30.13in /  1020.2hPa SE 6.0mph /  9.7km/h 19.0mph /  30.6km/h 78% 0.00in /  0mm
09:40 60.6 °F /  15.9 °C 53.4 °F /  11.9 °C 30.14in /  1020.5hPa SE 14.0mph /  22.5km/h 14.0mph /  22.5km/h 77% 0.00in /  0mm
09:45 60.5 °F /  15.8 °C 53.3 °F /  11.8 °C 30.14in /  1020.5hPa South 5.0mph /  8km/h 17.0mph /  27.4km/h 77% 0.00in /  0mm
09:50 60.6 °F /  15.9 °C 53.4 °F /  11.9 °C 30.14in /  1020.5hPa SSE 11.0mph /  17.7km/h 19.0mph /  30.6km/h 77% 0.00in /  0mm
09:55 60.8 °F /  16 °C 53.5 °F /  11.9 °C 30.13in /  1020.2hPa SSE 12.0mph /  19.3km/h 15.0mph /  24.1km/h 77% 0.00in /  0mm
10:00 61.2 °F /  16.2 °C 53.6 °F /  12 °C 30.13in /  1020.2hPa SE 16.0mph /  25.7km/h 16.0mph /  25.7km/h 76% 0.00in /  0mm
10:05 61.4 °F /  16.3 °C 53.8 °F /  12.1 °C 30.14in /  1020.5hPa SE 13.0mph /  20.9km/h 15.0mph /  24.1km/h 76% 0.00in /  0mm
10:10 61.7 °F /  16.5 °C 54.1 °F /  12.3 °C 30.14in /  1020.5hPa South 10.0mph /  16.1km/h 17.0mph /  27.4km/h 76% 0.00in /  0mm
10:15 62.1 °F /  16.7 °C 54.1 °F /  12.3 °C 30.14in /  1020.5hPa SSE 10.0mph /  16.1km/h 20.0mph /  32.2km/h 75% 0.00in /  0mm
10:20 62.5 °F /  16.9 °C 54.5 °F /  12.5 °C 30.14in /  1020.5hPa SW 9.0mph /  14.5km/h 12.0mph /  19.3km/h 75% 0.00in /  0mm
10:25 62.8 °F /  17.1 °C 54.8 °F /  12.7 °C 30.14in /  1020.5hPa SE 11.0mph /  17.7km/h 16.0mph /  25.7km/h 75% 0.00in /  0mm
10:30 63.4 °F /  17.4 °C 55.3 °F /  12.9 °C 30.14in /  1020.5hPa SSE 11.0mph /  17.7km/h 16.0mph /  25.7km/h 75% 0.00in /  0mm
10:35 64.0 °F /  17.8 °C 55.6 °F /  13.1 °C 30.14in /  1020.5hPa SE 12.0mph /  19.3km/h 18.0mph /  29km/h 74% 0.00in /  0mm
10:40 64.5 °F /  18.1 °C 54.9 °F /  12.7 °C 30.13in /  1020.2hPa SE 13.0mph /  20.9km/h 20.0mph /  32.2km/h 71% 0.00in /  0mm
10:45 64.5 °F /  18.1 °C 55.3 °F /  12.9 °C 30.14in /  1020.5hPa SW 14.0mph /  22.5km/h 18.0mph /  29km/h 72% 0.00in /  0mm
10:50 65.0 °F /  18.3 °C 56.2 °F /  13.4 °C 30.13in /  1020.2hPa South 10.0mph /  16.1km/h 16.0mph /  25.7km/h 73% 0.00in /  0mm
10:55 65.3 °F /  18.5 °C 56.0 °F /  13.3 °C 30.14in /  1020.5hPa SSE 9.0mph /  14.5km/h 13.0mph /  20.9km/h 72% 0.00in /  0mm
11:00 64.9 °F /  18.3 °C 55.3 °F /  12.9 °C 30.14in /  1020.5hPa SSE 12.0mph /  19.3km/h 15.0mph /  24.1km/h 71% 0.00in /  0mm
11:05 64.7 °F /  18.2 °C 55.5 °F /  13.1 °C 30.13in /  1020.2hPa SE 8.0mph /  12.9km/h 14.0mph /  22.5km/h 72% 0.00in /  0mm
11:10 64.3 °F /  17.9 °C 55.5 °F /  13.1 °C 30.13in /  1020.2hPa SE 5.0mph /  8km/h 15.0mph /  24.1km/h 73% 0.00in /  0mm
11:15 63.9 °F /  17.7 °C 55.5 °F /  13.1 °C 30.12in /  1019.9hPa South 5.0mph /  8km/h 19.0mph /  30.6km/h 74% 0.00in /  0mm
11:20 63.7 °F /  17.6 °C 55.6 °F /  13.1 °C 30.12in /  1019.9hPa SSE 11.0mph /  17.7km/h 19.0mph /  30.6km/h 75% 0.00in /  0mm
11:25 63.7 °F /  17.6 °C 55.6 °F /  13.1 °C 30.12in /  1019.9hPa South 6.0mph /  9.7km/h 17.0mph /  27.4km/h 75% 0.00in /  0mm
11:30 63.8 °F /  17.7 °C 56.1 °F /  13.4 °C 30.12in /  1019.9hPa South 6.0mph /  9.7km/h 18.0mph /  29km/h 76% 0.00in /  0mm
11:35 64.7 °F /  18.2 °C 57.0 °F /  13.9 °C 30.12in /  1019.9hPa SSE 8.0mph /  12.9km/h 11.0mph /  17.7km/h 76% 0.00in /  0mm
11:36 64.8 °F /  18.2 °C 56.7 °F /  13.7 °C 30.12in /  1019.9hPa SSE 11.0mph /  17.7km/h 11.0mph /  17.7km/h 75% 0.00in /  0mm
11:41 65.2 °F /  18.4 °C 57.1 °F /  13.9 °C 30.12in /  1019.9hPa SE 5.0mph /  8km/h 13.0mph /  20.9km/h 75% 0.00in /  0mm
11:46 65.6 °F /  18.7 °C 57.1 °F /  13.9 °C 30.11in /  1019.5hPa South 12.0mph /  19.3km/h 12.0mph /  19.3km/h 74% 0.00in /  0mm
11:51 65.9 °F /  18.8 °C 56.6 °F /  13.7 °C 30.11in /  1019.5hPa SSE 13.0mph /  20.9km/h 14.0mph /  22.5km/h 72% 0.00in /  0mm
11:56 66.3 °F /  19.1 °C 56.6 °F /  13.7 °C 30.11in /  1019.5hPa SSW 5.0mph /  8km/h 12.0mph /  19.3km/h 71% 0.00in /  0mm
12:01 66.6 °F /  19.2 °C 56.9 °F /  13.8 °C 30.11in /  1019.5hPa SW 15.0mph /  24.1km/h 17.0mph /  27.4km/h 71% 0.00in /  0mm
12:06 67.3 °F /  19.6 °C 57.2 °F /  14 °C 30.10in /  1019.2hPa South 5.0mph /  8km/h 14.0mph /  22.5km/h 70% 0.00in /  0mm
12:11 67.8 °F /  19.9 °C 57.7 °F /  14.3 °C 30.10in /  1019.2hPa SW 12.0mph /  19.3km/h 18.0mph /  29km/h 70% 0.00in /  0mm
12:16 67.8 °F /  19.9 °C 56.9 °F /  13.8 °C 30.10in /  1019.2hPa SSE 13.0mph /  20.9km/h 19.0mph /  30.6km/h 68% 0.00in /  0mm
12:21 67.9 °F /  19.9 °C 57.4 °F /  14.1 °C 30.09in /  1018.8hPa SSE 10.0mph /  16.1km/h 20.0mph /  32.2km/h 69% 0.00in /  0mm
12:26 67.9 °F /  19.9 °C 57.0 °F /  13.9 °C 30.09in /  1018.8hPa SSE 17.0mph /  27.4km/h 17.0mph /  27.4km/h 68% 0.00in /  0mm
12:32 67.6 °F /  19.8 °C 56.7 °F /  13.7 °C 30.09in /  1018.8hPa SSE 18.0mph /  29km/h 22.0mph /  35.4km/h 68% 0.00in /  0mm
12:37 67.5 °F /  19.7 °C 57.0 °F /  13.9 °C 30.09in /  1018.8hPa SW 9.0mph /  14.5km/h 21.0mph /  33.8km/h 69% 0.00in /  0mm
12:42 67.6 °F /  19.8 °C 57.1 °F /  13.9 °C 30.09in /  1018.8hPa SE 6.0mph /  9.7km/h 22.0mph /  35.4km/h 69% 0.00in /  0mm
12:47 67.5 °F /  19.7 °C 57.0 °F /  13.9 °C 30.09in /  1018.8hPa SSW 9.0mph /  14.5km/h 18.0mph /  29km/h 69% 0.00in /  0mm
12:52 67.2 °F /  19.6 °C 56.7 °F /  13.7 °C 30.08in /  1018.5hPa South 12.0mph /  19.3km/h 24.0mph /  38.6km/h 69% 0.00in /  0mm
12:57 67.1 °F /  19.5 °C 57.0 °F /  13.9 °C 30.08in /  1018.5hPa SE 10.0mph /  16.1km/h 18.0mph /  29km/h 70% 0.00in /  0mm
13:02 67.3 °F /  19.6 °C 57.2 °F /  14 °C 30.08in /  1018.5hPa SW 14.0mph /  22.5km/h 17.0mph /  27.4km/h 70% 0.00in /  0mm
13:07 67.5 °F /  19.7 °C 57.0 °F /  13.9 °C 30.07in /  1018.2hPa SE 8.0mph /  12.9km/h 18.0mph /  29km/h 69% 0.00in /  0mm
13:12 68.1 °F /  20.1 °C 57.6 °F /  14.2 °C 30.07in /  1018.2hPa SSW 7.0mph /  11.3km/h 17.0mph /  27.4km/h 69% 0.00in /  0mm
13:17 68.7 °F /  20.4 °C 57.7 °F /  14.3 °C 30.07in /  1018.2hPa SSE 14.0mph /  22.5km/h 16.0mph /  25.7km/h 68% 0.00in /  0mm
13:22 69.6 °F /  20.9 °C 58.2 °F /  14.6 °C 30.07in /  1018.2hPa SSE 15.0mph /  24.1km/h 17.0mph /  27.4km/h 67% 0.00in /  0mm
13:27 70.0 °F /  21.1 °C 58.5 °F /  14.7 °C 30.06in /  1017.8hPa SSW 11.0mph /  17.7km/h 21.0mph /  33.8km/h 67% 0.00in /  0mm
13:32 70.0 °F /  21.1 °C 58.1 °F /  14.5 °C 30.06in /  1017.8hPa SSE 6.0mph /  9.7km/h 13.0mph /  20.9km/h 66% 0.00in /  0mm
13:37 70.0 °F /  21.1 °C 57.7 °F /  14.3 °C 30.06in /  1017.8hPa SSW 17.0mph /  27.4km/h 17.0mph /  27.4km/h 65% 0.00in /  0mm
13:42 69.8 °F /  21 °C 57.5 °F /  14.2 °C 30.06in /  1017.8hPa SSE 11.0mph /  17.7km/h 23.0mph /  37km/h 65% 0.00in /  0mm
13:43 69.8 °F /  21 °C 57.5 °F /  14.2 °C 30.06in /  1017.8hPa South 13.0mph /  20.9km/h 23.0mph /  37km/h 65% 0.00in /  0mm
13:49 69.8 °F /  21 °C 57.5 °F /  14.2 °C 30.05in /  1017.5hPa SSE 16.0mph /  25.7km/h 16.0mph /  25.7km/h 65% 0.00in /  0mm
13:54 69.6 °F /  20.9 °C 57.8 °F /  14.3 °C 30.05in /  1017.5hPa SSE 11.0mph /  17.7km/h 21.0mph /  33.8km/h 66% 0.00in /  0mm
13:59 69.7 °F /  20.9 °C 57.4 °F /  14.1 °C 30.05in /  1017.5hPa South 18.0mph /  29km/h 18.0mph /  29km/h 65% 0.00in /  0mm
14:04 69.7 °F /  20.9 °C 57.4 °F /  14.1 °C 30.05in /  1017.5hPa South 10.0mph /  16.1km/h 16.0mph /  25.7km/h 65% 0.00in /  0mm
14:09 69.6 °F /  20.9 °C 57.8 °F /  14.3 °C 30.05in /  1017.5hPa SSE 15.0mph /  24.1km/h 16.0mph /  25.7km/h 66% 0.00in /  0mm
14:14 69.6 °F /  20.9 °C 57.3 °F /  14.1 °C 30.04in /  1017.2hPa SSE 12.0mph /  19.3km/h 17.0mph /  27.4km/h 65% 0.00in /  0mm
14:19 69.7 °F /  20.9 °C 57.8 °F /  14.3 °C 30.04in /  1017.2hPa SSE 6.0mph /  9.7km/h 14.0mph /  22.5km/h 66% 0.00in /  0mm
14:24 69.8 °F /  21 °C 57.5 °F /  14.2 °C 30.04in /  1017.2hPa SSE 9.0mph /  14.5km/h 15.0mph /  24.1km/h 65% 0.00in /  0mm
14:29 69.8 °F /  21 °C 58.4 °F /  14.7 °C 30.04in /  1017.2hPa SW 8.0mph /  12.9km/h 15.0mph /  24.1km/h 67% 0.00in /  0mm
14:34 69.7 °F /  20.9 °C 57.8 °F /  14.3 °C 30.04in /  1017.2hPa SSW 7.0mph /  11.3km/h 15.0mph /  24.1km/h 66% 0.00in /  0mm
14:39 69.5 °F /  20.8 °C 58.1 °F /  14.5 °C 30.04in /  1017.2hPa SW 6.0mph /  9.7km/h 13.0mph /  20.9km/h 67% 0.00in /  0mm
14:44 69.2 °F /  20.7 °C 58.2 °F /  14.6 °C 30.04in /  1017.2hPa South 7.0mph /  11.3km/h 11.0mph /  17.7km/h 68% 0.00in /  0mm
14:49 68.9 °F /  20.5 °C 58.3 °F /  14.6 °C 30.04in /  1017.2hPa SSE 10.0mph /  16.1km/h 11.0mph /  17.7km/h 69% 0.00in /  0mm
14:54 68.4 °F /  20.2 °C 58.6 °F /  14.8 °C 30.03in /  1016.8hPa South 7.0mph /  11.3km/h 12.0mph /  19.3km/h 71% 0.00in /  0mm
14:59 67.7 °F /  19.8 °C 58.7 °F /  14.8 °C 30.04in /  1017.2hPa SSW 4.0mph /  6.4km/h 11.0mph /  17.7km/h 73% 0.00in /  0mm
15:04 67.2 °F /  19.6 °C 58.6 °F /  14.8 °C 30.04in /  1017.2hPa SSW 4.0mph /  6.4km/h 11.0mph /  17.7km/h 74% 0.00in /  0mm
15:09 66.7 °F /  19.3 °C 59.3 °F /  15.2 °C 30.04in /  1017.2hPa SSW 6.0mph /  9.7km/h 10.0mph /  16.1km/h 77% 0.00in /  0mm
15:14 66.0 °F /  18.9 °C 59.3 °F /  15.2 °C 30.04in /  1017.2hPa SSW 5.0mph /  8km/h 8.0mph /  12.9km/h 79% 0.00in /  0mm
15:19 65.3 °F /  18.5 °C 59.7 °F /  15.4 °C 30.03in /  1016.8hPa South 4.0mph /  6.4km/h 8.0mph /  12.9km/h 82% 0.17in /  4.32mm
15:24 64.7 °F /  18.2 °C 60.1 °F /  15.6 °C 30.04in /  1017.2hPa SW 4.0mph /  6.4km/h 5.0mph /  8km/h 85% 0.14in /  3.56mm
15:29 64.3 °F /  17.9 °C 60.3 °F /  15.7 °C 30.03in /  1016.8hPa SSW 2.0mph /  3.2km/h 5.0mph /  8km/h 87% 0.07in /  1.78mm
15:34 64.0 °F /  17.8 °C 60.4 °F /  15.8 °C 30.03in /  1016.8hPa SSW 2.0mph /  3.2km/h 3.0mph /  4.8km/h 88% 0.04in /  1.02mm
15:39 63.8 °F /  17.7 °C 60.2 °F /  15.7 °C 30.04in /  1017.2hPa SSE 3.0mph /  4.8km/h 5.0mph /  8km/h 88% 0.00in /  0mm
15:44 63.7 °F /  17.6 °C 60.1 °F /  15.6 °C 30.03in /  1016.8hPa SSW 4.0mph /  6.4km/h 4.0mph /  6.4km/h 88% 0.16in /  4.06mm
15:49 63.7 °F /  17.6 °C 60.4 °F /  15.8 °C 30.03in /  1016.8hPa SSE 3.0mph /  4.8km/h 5.0mph /  8km/h 89% 0.08in /  2.03mm
15:54 63.6 °F /  17.6 °C 60.3 °F /  15.7 °C 30.02in /  1016.5hPa South 3.0mph /  4.8km/h 5.0mph /  8km/h 89% 0.05in /  1.27mm
15:59 63.8 °F /  17.7 °C 60.2 °F /  15.7 °C 30.02in /  1016.5hPa SSW 4.0mph /  6.4km/h 6.0mph /  9.7km/h 88% 0.00in /  0mm
16:04 63.9 °F /  17.7 °C 60.3 °F /  15.7 °C 30.02in /  1016.5hPa SSE 5.0mph /  8km/h 7.0mph /  11.3km/h 88% 0.00in /  0mm
16:09 63.9 °F /  17.7 °C 60.3 °F /  15.7 °C 30.02in /  1016.5hPa South 5.0mph /  8km/h 6.0mph /  9.7km/h 88% 0.00in /  0mm
16:14 63.9 °F /  17.7 °C 60.6 °F /  15.9 °C 30.01in /  1016.1hPa South 5.0mph /  8km/h 7.0mph /  11.3km/h 89% 0.00in /  0mm
16:19 64.0 °F /  17.8 °C 60.7 °F /  15.9 °C 30.01in /  1016.1hPa South 6.0mph /  9.7km/h 7.0mph /  11.3km/h 89% 0.00in /  0mm
16:24 64.1 °F /  17.8 °C 60.5 °F /  15.8 °C 30.01in /  1016.1hPa SE 4.0mph /  6.4km/h 9.0mph /  14.5km/h 88% 0.00in /  0mm
16:28 64.3 °F /  17.9 °C 60.7 °F /  15.9 °C 30.01in /  1016.1hPa SSE 8.0mph /  12.9km/h 8.0mph /  12.9km/h 88% 0.00in /  0mm
16:33 64.3 °F /  17.9 °C 60.3 °F /  15.7 °C 30.01in /  1016.1hPa SSE 5.0mph /  8km/h 6.0mph /  9.7km/h 87% 0.00in /  0mm
16:38 64.4 °F /  18 °C 60.5 °F /  15.8 °C 30.01in /  1016.1hPa SSE 7.0mph /  11.3km/h 8.0mph /  12.9km/h 87% 0.00in /  0mm
16:43 64.6 °F /  18.1 °C 60.3 °F /  15.7 °C 30.01in /  1016.1hPa SSW 5.0mph /  8km/h 8.0mph /  12.9km/h 86% 0.00in /  0mm
16:48 64.7 °F /  18.2 °C 60.4 °F /  15.8 °C 30.01in /  1016.1hPa South 4.0mph /  6.4km/h 8.0mph /  12.9km/h 86% 0.00in /  0mm
16:53 64.8 °F /  18.2 °C 60.5 °F /  15.8 °C 30.01in /  1016.1hPa SSW 7.0mph /  11.3km/h 7.0mph /  11.3km/h 86% 0.00in /  0mm
16:58 64.9 °F /  18.3 °C 60.3 °F /  15.7 °C 30.01in /  1016.1hPa South 6.0mph /  9.7km/h 10.0mph /  16.1km/h 85% 0.00in /  0mm
17:03 64.9 °F /  18.3 °C 60.3 °F /  15.7 °C 30.01in /  1016.1hPa SSE 5.0mph /  8km/h 7.0mph /  11.3km/h 85% 0.00in /  0mm
17:08 64.7 °F /  18.2 °C 60.4 °F /  15.8 °C 30.01in /  1016.1hPa South 5.0mph /  8km/h 5.0mph /  8km/h 86% 0.00in /  0mm
17:14 64.7 °F /  18.2 °C 60.4 °F /  15.8 °C 30.01in /  1016.1hPa South 4.0mph /  6.4km/h 6.0mph /  9.7km/h 86% 0.00in /  0mm
17:19 64.9 °F /  18.3 °C 60.3 °F /  15.7 °C 30.01in /  1016.1hPa SSE 2.0mph /  3.2km/h 7.0mph /  11.3km/h 85% 0.00in /  0mm
17:24 64.9 °F /  18.3 °C 60.3 °F /  15.7 °C 30.01in /  1016.1hPa South 5.0mph /  8km/h 6.0mph /  9.7km/h 85% 0.00in /  0mm
17:29 65.1 °F /  18.4 °C 60.5 °F /  15.8 °C 30.01in /  1016.1hPa South 3.0mph /  4.8km/h 5.0mph /  8km/h 85% 0.00in /  0mm
17:34 65.0 °F /  18.3 °C 60.4 °F /  15.8 °C 30.01in /  1016.1hPa SSW 2.0mph /  3.2km/h 5.0mph /  8km/h 85% 0.00in /  0mm
17:39 65.0 °F /  18.3 °C 60.4 °F /  15.8 °C 30.02in /  1016.5hPa WNW 4.0mph /  6.4km/h 6.0mph /  9.7km/h 85% 0.00in /  0mm
17:44 64.4 °F /  18 °C 60.5 °F /  15.8 °C 30.04in /  1017.2hPa NW 11.0mph /  17.7km/h 13.0mph /  20.9km/h 87% 0.00in /  0mm
17:49 62.8 °F /  17.1 °C 58.6 °F /  14.8 °C 30.05in /  1017.5hPa NNW 10.0mph /  16.1km/h 21.0mph /  33.8km/h 86% 0.00in /  0mm
17:54 61.3 °F /  16.3 °C 58.0 °F /  14.4 °C 30.06in /  1017.8hPa NW 13.0mph /  20.9km/h 13.0mph /  20.9km/h 89% 0.05in /  1.27mm
17:59 60.3 °F /  15.7 °C 57.7 °F /  14.3 °C 30.03in /  1016.8hPa NE 13.0mph /  20.9km/h 21.0mph /  33.8km/h 91% 0.39in /  9.91mm
18:04 59.7 °F /  15.4 °C 57.4 °F /  14.1 °C 30.06in /  1017.8hPa North 6.0mph /  9.7km/h 18.0mph /  29km/h 92% 0.56in /  14.22mm
18:09 59.2 °F /  15.1 °C 56.9 °F /  13.8 °C 30.04in /  1017.2hPa NNW 16.0mph /  25.7km/h 18.0mph /  29km/h 92% 0.35in /  8.89mm
18:14 58.8 °F /  14.9 °C 56.5 °F /  13.6 °C 30.05in /  1017.5hPa North 13.0mph /  20.9km/h 16.0mph /  25.7km/h 92% 0.18in /  4.57mm
18:20 58.6 °F /  14.8 °C 56.6 °F /  13.7 °C 30.05in /  1017.5hPa NNE 8.0mph /  12.9km/h 14.0mph /  22.5km/h 93% 2.15in /  54.61mm
18:25 58.4 °F /  14.7 °C 56.7 °F /  13.7 °C 30.07in /  1018.2hPa NNW 8.0mph /  12.9km/h 11.0mph /  17.7km/h 94% 0.36in /  9.14mm
18:30 58.4 °F /  14.7 °C 56.7 °F /  13.7 °C 30.07in /  1018.2hPa North 8.0mph /  12.9km/h 10.0mph /  16.1km/h 94% 0.36in /  9.14mm
18:35 58.4 °F /  14.7 °C 56.7 °F /  13.7 °C 30.06in /  1017.8hPa North 6.0mph /  9.7km/h 7.0mph /  11.3km/h 94% 0.24in /  6.1mm
18:40 58.4 °F /  14.7 °C 56.7 °F /  13.7 °C 30.07in /  1018.2hPa NW 7.0mph /  11.3km/h 8.0mph /  12.9km/h 94% 0.14in /  3.56mm
18:45 58.4 °F /  14.7 °C 56.7 °F /  13.7 °C 30.07in /  1018.2hPa North 6.0mph /  9.7km/h 10.0mph /  16.1km/h 94% 0.51in /  12.95mm
18:48 58.4 °F /  14.7 °C 56.7 °F /  13.7 °C 30.08in /  1018.5hPa NW 8.0mph /  12.9km/h 10.0mph /  16.1km/h 94% 0.35in /  8.89mm
18:53 58.4 °F /  14.7 °C 57.0 °F /  13.9 °C 30.11in /  1019.5hPa NW 10.0mph /  16.1km/h 13.0mph /  20.9km/h 95% 0.52in /  13.21mm
18:58 58.3 °F /  14.6 °C 56.9 °F /  13.8 °C 30.08in /  1018.5hPa North 9.0mph /  14.5km/h 16.0mph /  25.7km/h 95% 1.30in /  33.02mm
19:03 58.0 °F /  14.4 °C 56.3 °F /  13.5 °C 30.09in /  1018.8hPa NNW 8.0mph /  12.9km/h 18.0mph /  29km/h 94% 0.47in /  11.94mm
19:08 57.7 °F /  14.3 °C 56.0 °F /  13.3 °C 30.08in /  1018.5hPa NNW 12.0mph /  19.3km/h 15.0mph /  24.1km/h 94% 0.16in /  4.06mm
19:13 57.4 °F /  14.1 °C 55.7 °F /  13.2 °C 30.09in /  1018.8hPa NW 17.0mph /  27.4km/h 17.0mph /  27.4km/h 94% 0.10in /  2.54mm
19:19 56.8 °F /  13.8 °C 55.1 °F /  12.8 °C 30.12in /  1019.9hPa NW 14.0mph /  22.5km/h 16.0mph /  25.7km/h 94% 0.06in /  1.52mm
19:24 56.3 °F /  13.5 °C 54.6 °F /  12.6 °C 30.14in /  1020.5hPa NNW 17.0mph /  27.4km/h 24.0mph /  38.6km/h 94% 0.47in /  11.94mm
19:29 55.1 °F /  12.8 °C 53.1 °F /  11.7 °C 30.13in /  1020.2hPa NNW 22.0mph /  35.4km/h 23.0mph /  37km/h 93% 0.22in /  5.59mm
19:34 53.5 °F /  11.9 °C 51.2 °F /  10.7 °C 30.14in /  1020.5hPa North 18.0mph /  29km/h 27.0mph /  43.5km/h 92% 0.13in /  3.3mm
19:39 52.6 °F /  11.4 °C 50.6 °F /  10.3 °C 30.14in /  1020.5hPa WNW 10.0mph /  16.1km/h 22.0mph /  35.4km/h 93% 0.06in /  1.52mm
19:44 52.1 °F /  11.2 °C 50.4 °F /  10.2 °C 30.16in /  1021.2hPa North 16.0mph /  25.7km/h 24.0mph /  38.6km/h 94% 0.05in /  1.27mm
19:49 51.6 °F /  10.9 °C 49.9 °F /  9.9 °C 30.16in /  1021.2hPa NNW 14.0mph /  22.5km/h 19.0mph /  30.6km/h 94% 0.19in /  4.83mm
19:54 50.6 °F /  10.3 °C 48.7 °F /  9.3 °C 30.14in /  1020.5hPa NNW 17.0mph /  27.4km/h 21.0mph /  33.8km/h 93% 0.20in /  5.08mm
19:59 49.9 °F /  9.9 °C 48.2 °F /  9 °C 30.14in /  1020.5hPa NNE 18.0mph /  29km/h 18.0mph /  29km/h 94% 0.20in /  5.08mm
20:04 49.7 °F /  9.8 °C 48.0 °F /  8.9 °C 30.14in /  1020.5hPa NNE 9.0mph /  14.5km/h 18.0mph /  29km/h 94% 0.17in /  4.32mm
20:09 49.5 °F /  9.7 °C 48.1 °F /  8.9 °C 30.14in /  1020.5hPa NNE 11.0mph /  17.7km/h 18.0mph /  29km/h 95% 0.12in /  3.05mm
20:15 49.4 °F /  9.7 °C 48.0 °F /  8.9 °C 30.13in /  1020.2hPa NNE 13.0mph /  20.9km/h 20.0mph /  32.2km/h 95% 0.10in /  2.54mm
20:20 49.1 °F /  9.5 °C 47.7 °F /  8.7 °C 30.13in /  1020.2hPa NNE 12.0mph /  19.3km/h 15.0mph /  24.1km/h 95% 0.12in /  3.05mm
20:25 48.5 °F /  9.2 °C 46.9 °F /  8.3 °C 30.14in /  1020.5hPa NNE 8.0mph /  12.9km/h 16.0mph /  25.7km/h 94% 0.11in /  2.79mm
20:30 48.1 °F /  8.9 °C 46.5 °F /  8.1 °C 30.14in /  1020.5hPa North 8.0mph /  12.9km/h 16.0mph /  25.7km/h 94% 0.07in /  1.78mm
20:35 47.8 °F /  8.8 °C 46.2 °F /  7.9 °C 30.14in /  1020.5hPa NNE 10.0mph /  16.1km/h 16.0mph /  25.7km/h 94% 0.09in /  2.29mm
20:36 47.7 °F /  8.7 °C 46.1 °F /  7.8 °C 30.15in /  1020.9hPa North 6.0mph /  9.7km/h 16.0mph /  25.7km/h 94% 0.09in /  2.29mm
20:41 47.5 °F /  8.6 °C 45.9 °F /  7.7 °C 30.16in /  1021.2hPa NNE 11.0mph /  17.7km/h 16.0mph /  25.7km/h 94% 0.14in /  3.56mm
20:46 47.4 °F /  8.6 °C 46.0 °F /  7.8 °C 30.17in /  1021.6hPa NNE 4.0mph /  6.4km/h 11.0mph /  17.7km/h 95% 0.19in /  4.83mm
20:51 47.3 °F /  8.5 °C 45.9 °F /  7.7 °C 30.17in /  1021.6hPa NNE 4.0mph /  6.4km/h 11.0mph /  17.7km/h 95% 0.20in /  5.08mm
20:56 47.2 °F /  8.4 °C 45.8 °F /  7.7 °C 30.17in /  1021.6hPa NNE 6.0mph /  9.7km/h 12.0mph /  19.3km/h 95% 0.18in /  4.57mm
21:01 47.2 °F /  8.4 °C 45.8 °F /  7.7 °C 30.18in /  1021.9hPa NNE 4.0mph /  6.4km/h 8.0mph /  12.9km/h 95% 0.22in /  5.59mm
21:06 47.2 °F /  8.4 °C 45.8 °F /  7.7 °C 30.17in /  1021.6hPa NE 10.0mph /  16.1km/h 13.0mph /  20.9km/h 95% 0.21in /  5.33mm
21:11 47.2 °F /  8.4 °C 45.8 °F /  7.7 °C 30.18in /  1021.9hPa North 9.0mph /  14.5km/h 9.0mph /  14.5km/h 95% 0.31in /  7.87mm
21:17 47.2 °F /  8.4 °C 45.8 °F /  7.7 °C 30.18in /  1021.9hPa North 4.0mph /  6.4km/h 11.0mph /  17.7km/h 95% 0.23in /  5.84mm
21:22 47.3 °F /  8.5 °C 45.9 °F /  7.7 °C 30.18in /  1021.9hPa North 8.0mph /  12.9km/h 12.0mph /  19.3km/h 95% 0.16in /  4.06mm
21:27 47.3 °F /  8.5 °C 45.9 °F /  7.7 °C 30.18in /  1021.9hPa NNW 11.0mph /  17.7km/h 12.0mph /  19.3km/h 95% 0.20in /  5.08mm
21:32 47.3 °F /  8.5 °C 45.9 °F /  7.7 °C 30.17in /  1021.6hPa North 8.0mph /  12.9km/h 11.0mph /  17.7km/h 95% 0.23in /  5.84mm
21:37 47.3 °F /  8.5 °C 46.2 °F /  7.9 °C 30.17in /  1021.6hPa NNW 10.0mph /  16.1km/h 12.0mph /  19.3km/h 96% 0.21in /  5.33mm
21:42 47.2 °F /  8.4 °C 46.1 °F /  7.8 °C 30.16in /  1021.2hPa North 6.0mph /  9.7km/h 11.0mph /  17.7km/h 96% 0.16in /  4.06mm
21:47 47.1 °F /  8.4 °C 46.0 °F /  7.8 °C 30.16in /  1021.2hPa NNE 10.0mph /  16.1km/h 14.0mph /  22.5km/h 96% 0.19in /  4.83mm
21:52 47.1 °F /  8.4 °C 45.7 °F /  7.6 °C 30.15in /  1020.9hPa NE 11.0mph /  17.7km/h 12.0mph /  19.3km/h 95% 0.15in /  3.81mm
21:57 47.1 °F /  8.4 °C 46.0 °F /  7.8 °C 30.15in /  1020.9hPa NNE 10.0mph /  16.1km/h 13.0mph /  20.9km/h 96% 0.17in /  4.32mm
22:02 47.1 °F /  8.4 °C 46.0 °F /  7.8 °C 30.16in /  1021.2hPa NNE 4.0mph /  6.4km/h 11.0mph /  17.7km/h 96% 0.17in /  4.32mm
22:07 47.1 °F /  8.4 °C 46.0 °F /  7.8 °C 30.16in /  1021.2hPa NNE 5.0mph /  8km/h 11.0mph /  17.7km/h 96% 0.13in /  3.3mm
22:12 47.1 °F /  8.4 °C 46.0 °F /  7.8 °C 30.17in /  1021.6hPa NNE 6.0mph /  9.7km/h 10.0mph /  16.1km/h 96% 0.18in /  4.57mm
22:17 47.1 °F /  8.4 °C 46.0 °F /  7.8 °C 30.17in /  1021.6hPa NNE 3.0mph /  4.8km/h 7.0mph /  11.3km/h 96% 0.13in /  3.3mm
22:22 47.2 °F /  8.4 °C 46.1 °F /  7.8 °C 30.17in /  1021.6hPa North 7.0mph /  11.3km/h 8.0mph /  12.9km/h 96% 0.13in /  3.3mm
22:27 47.3 °F /  8.5 °C 46.2 °F /  7.9 °C 30.16in /  1021.2hPa NE 9.0mph /  14.5km/h 10.0mph /  16.1km/h 96% 0.13in /  3.3mm
22:32 47.4 °F /  8.6 °C 46.3 °F /  7.9 °C 30.16in /  1021.2hPa NE 9.0mph /  14.5km/h 10.0mph /  16.1km/h 96% 0.15in /  3.81mm
22:37 47.4 °F /  8.6 °C 46.3 °F /  7.9 °C 30.16in /  1021.2hPa NNE 9.0mph /  14.5km/h 9.0mph /  14.5km/h 96% 0.11in /  2.79mm
22:42 47.5 °F /  8.6 °C 46.4 °F /  8 °C 30.17in /  1021.6hPa North 5.0mph /  8km/h 9.0mph /  14.5km/h 96% 0.11in /  2.79mm
22:47 47.5 °F /  8.6 °C 46.4 °F /  8 °C 30.18in /  1021.9hPa North 5.0mph /  8km/h 6.0mph /  9.7km/h 96% 0.11in /  2.79mm
22:52 47.5 °F /  8.6 °C 46.4 °F /  8 °C 30.18in /  1021.9hPa North 7.0mph /  11.3km/h 8.0mph /  12.9km/h 96% 0.11in /  2.79mm
22:58 47.4 °F /  8.6 °C 46.3 °F /  7.9 °C 30.19in /  1022.2hPa NNW 4.0mph /  6.4km/h 9.0mph /  14.5km/h 96% 0.11in /  2.79mm
23:03 47.4 °F /  8.6 °C 46.3 °F /  7.9 °C 30.19in /  1022.2hPa North 7.0mph /  11.3km/h 11.0mph /  17.7km/h 96% 0.08in /  2.03mm
23:08 47.3 °F /  8.5 °C 46.2 °F /  7.9 °C 30.21in /  1022.9hPa NNW 9.0mph /  14.5km/h 12.0mph /  19.3km/h 96% 0.20in /  5.08mm
23:13 47.0 °F /  8.3 °C 45.9 °F /  7.7 °C 30.22in /  1023.2hPa NNW 15.0mph /  24.1km/h 15.0mph /  24.1km/h 96% 0.19in /  4.83mm
23:18 46.5 °F /  8.1 °C 45.2 °F /  7.3 °C 30.22in /  1023.2hPa NNW 8.0mph /  12.9km/h 22.0mph /  35.4km/h 95% 0.15in /  3.81mm
23:23 46.0 °F /  7.8 °C 44.7 °F /  7.1 °C 30.22in /  1023.2hPa NNW 6.0mph /  9.7km/h 20.0mph /  32.2km/h 95% 0.14in /  3.56mm
23:28 45.5 °F /  7.5 °C 44.2 °F /  6.8 °C 30.22in /  1023.2hPa NNE 13.0mph /  20.9km/h 19.0mph /  30.6km/h 95% 0.14in /  3.56mm
23:33 44.9 °F /  7.2 °C 43.6 °F /  6.4 °C 30.22in /  1023.2hPa NW 8.0mph /  12.9km/h 14.0mph /  22.5km/h 95% 0.15in /  3.81mm
23:38 44.6 °F /  7 °C 43.3 °F /  6.3 °C 30.23in /  1023.6hPa NNW 11.0mph /  17.7km/h 12.0mph /  19.3km/h 95% 0.08in /  2.03mm
23:43 44.3 °F /  6.8 °C 43.0 °F /  6.1 °C 30.23in /  1023.6hPa NNW 7.0mph /  11.3km/h 12.0mph /  19.3km/h 95% 0.12in /  3.05mm
23:48 43.6 °F /  6.4 °C 42.3 °F /  5.7 °C 30.22in /  1023.2hPa NNE 7.0mph /  11.3km/h 14.0mph /  22.5km/h 95% 0.15in /  3.81mm
23:53 43.1 °F /  6.2 °C 41.8 °F /  5.4 °C 30.22in /  1023.2hPa NNE 4.0mph /  6.4km/h 10.0mph /  16.1km/h 95% 0.21in /  5.33mm
23:58 42.8 °F /  6 °C 41.5 °F /  5.3 °C 30.22in /  1023.2hPa NW 6.0mph /  9.7km/h 12.0mph /  19.3km/h 95% 0.31in /  7.87mm
Compliments of Weather Underground